PWSweather.com
Personal Weather Stations
Station Observations
OINOFYTA
Oinofyta Greece, OinofytaGR 320 11

Oinofyta GreeceOinofytaGR 320 11

Lat: 38.3080648, Lon: 23.6391172

Elevation: 354

Station Type: ProWeatherStation 1080

http://oinofytaweather.gr/

High Low Average
Temperature 60.6°F15.9°C 35.2°F1.8°C 46.2°F7.9°C
Dew Point 47.9°F8.8°C 34.6°F1.4°C 40.7°F4.8°C
Winds 5.0 mph 8.0 kmh Calm Calm 2.0 mph WSW3.2 kmh WSW
Wind Gusts 10.7 mph17.2 kmh 1.6 mph2.6 kmh 5.0 mph8.0 kmh
Humidity 99% 59% 82%
Pressure 30.35 in1027.8 mb 30.27 in1025.1 mb -
Precipitation 0.00 in0.0 mm - -
Hour Temp Dew Point Humidity Winds Wind Gusts Pressure Precip Precip Rate Daily Precip Total
12:00 AM 39.7°F4.3°C 36.8°F2.7°C 89% 2.2 mph SW3.5 kmh SW 6.0 mph9.7 kmh 30.29 in1025.7 mb 0.00 in0.0 mm 0.00 in0.0 mm 0.00 in0.0 mm
12:05 AM 39.9°F4.4°C 36.9°F2.7°C 89% 1.8 mph WSW2.9 kmh WSW 6.0 mph9.7 kmh 30.29 in1025.7 mb 0.00 in0.0 mm 0.00 in0.0 mm 0.00 in0.0 mm
12:10 AM 39.9°F4.4°C 36.9°F2.7°C 89% 2.1 mph WSW3.4 kmh WSW 5.4 mph8.7 kmh 30.28 in1025.4 mb 0.00 in0.0 mm 0.00 in0.0 mm 0.00 in0.0 mm
12:15 AM 40.3°F4.6°C 37.3°F2.9°C 89% 2.5 mph WSW4.0 kmh WSW 5.4 mph8.7 kmh 30.28 in1025.4 mb 0.00 in0.0 mm 0.00 in0.0 mm 0.00 in0.0 mm
12:20 AM 40.3°F4.6°C 37.0°F2.8°C 88% 2.3 mph WSW3.7 kmh WSW 5.4 mph8.7 kmh 30.28 in1025.4 mb 0.00 in0.0 mm 0.00 in0.0 mm 0.00 in0.0 mm
12:25 AM 40.3°F4.6°C 37.0°F2.8°C 88% 2.4 mph WSW3.9 kmh WSW 5.4 mph8.7 kmh 30.28 in1025.4 mb 0.00 in0.0 mm 0.00 in0.0 mm 0.00 in0.0 mm
12:30 AM 40.3°F4.6°C 37.0°F2.8°C 88% 2.4 mph WSW3.9 kmh WSW 5.4 mph8.7 kmh 30.29 in1025.7 mb 0.00 in0.0 mm 0.00 in0.0 mm 0.00 in0.0 mm
12:35 AM 39.6°F4.2°C 36.0°F2.2°C 87% 3.5 mph SW5.6 kmh SW 9.2 mph14.8 kmh 30.29 in1025.7 mb 0.00 in0.0 mm 0.00 in0.0 mm 0.00 in0.0 mm
12:40 AM 38.7°F3.7°C 35.7°F2.1°C 89% 3.8 mph SW6.1 kmh SW 9.2 mph14.8 kmh 30.29 in1025.7 mb 0.00 in0.0 mm 0.00 in0.0 mm 0.00 in0.0 mm
12:45 AM 38.1°F3.4°C 35.5°F1.9°C 90% 1.4 mph SW2.3 kmh SW 6.9 mph11.1 kmh 30.29 in1025.7 mb 0.00 in0.0 mm 0.00 in0.0 mm 0.00 in0.0 mm
12:50 AM 37.9°F3.3°C 35.8°F2.1°C 92% 0.2 mph SW0.3 kmh SW 2.2 mph3.5 kmh 30.29 in1025.7 mb 0.00 in0.0 mm 0.00 in0.0 mm 0.00 in0.0 mm
12:55 AM 37.9°F3.3°C 36.1°F2.3°C 93% 0.6 mph WSW1.0 kmh WSW 3.1 mph5.0 kmh 30.28 in1025.4 mb 0.00 in0.0 mm 0.00 in0.0 mm 0.00 in0.0 mm
01:00 AM 38.8°F3.8°C 37.3°F2.9°C 94% 1.3 mph WSW2.1 kmh WSW 4.5 mph7.2 kmh 30.28 in1025.4 mb 0.00 in0.0 mm 0.00 in0.0 mm 0.00 in0.0 mm
01:05 AM 39.2°F4.0°C 37.4°F3.0°C 93% 2.1 mph W3.4 kmh W 5.4 mph8.7 kmh 30.29 in1025.7 mb 0.00 in0.0 mm 0.00 in0.0 mm 0.00 in0.0 mm
01:10 AM 39.6°F4.2°C 37.4°F3.0°C 92% 2.9 mph SW4.7 kmh SW 9.2 mph14.8 kmh 30.29 in1025.7 mb 0.00 in0.0 mm 0.00 in0.0 mm 0.00 in0.0 mm
01:15 AM 38.8°F3.8°C 36.2°F2.3°C 90% 2.9 mph SSW4.7 kmh SSW 9.2 mph14.8 kmh 30.29 in1025.7 mb 0.00 in0.0 mm 0.00 in0.0 mm 0.00 in0.0 mm
01:20 AM 38.3°F3.5°C 35.9°F2.2°C 91% 1.9 mph SW3.1 kmh SW 5.4 mph8.7 kmh 30.29 in1025.7 mb 0.00 in0.0 mm 0.00 in0.0 mm 0.00 in0.0 mm
01:25 AM 38.5°F3.6°C 36.6°F2.6°C 93% 1.9 mph WSW3.1 kmh WSW 7.6 mph12.2 kmh 30.29 in1025.7 mb 0.00 in0.0 mm 0.00 in0.0 mm 0.00 in0.0 mm
01:30 AM 39.2°F4.0°C 37.4°F3.0°C 93% 2.7 mph WSW4.3 kmh WSW 7.6 mph12.2 kmh 30.29 in1025.7 mb 0.00 in0.0 mm 0.00 in0.0 mm 0.00 in0.0 mm
01:35 AM 39.6°F4.2°C 37.4°F3.0°C 92% 2.7 mph WSW4.3 kmh WSW 6.9 mph11.1 kmh 30.29 in1025.7 mb 0.00 in0.0 mm 0.00 in0.0 mm 0.00 in0.0 mm
01:40 AM 40.1°F4.5°C 37.7°F3.2°C 91% 3.3 mph WSW5.3 kmh WSW 6.9 mph11.1 kmh 30.29 in1025.7 mb 0.00 in0.0 mm 0.00 in0.0 mm 0.00 in0.0 mm
01:45 AM 40.6°F4.8°C 37.7°F3.2°C 89% 3.7 mph SW6.0 kmh SW 6.9 mph11.1 kmh 30.30 in1026.1 mb 0.00 in0.0 mm 0.00 in0.0 mm 0.00 in0.0 mm
01:50 AM 40.6°F4.8°C 37.4°F3.0°C 88% 2.4 mph WSW3.9 kmh WSW 5.4 mph8.7 kmh 30.30 in1026.1 mb 0.00 in0.0 mm 0.00 in0.0 mm 0.00 in0.0 mm
01:55 AM 40.6°F4.8°C 37.7°F3.2°C 89% 2.5 mph WSW4.0 kmh WSW 9.2 mph14.8 kmh 30.30 in1026.1 mb 0.00 in0.0 mm 0.00 in0.0 mm 0.00 in0.0 mm
02:00 AM 41.2°F5.1°C 37.9°F3.3°C 88% 4.1 mph WSW6.6 kmh WSW 9.2 mph14.8 kmh 30.29 in1025.7 mb 0.00 in0.0 mm 0.00 in0.0 mm 0.00 in0.0 mm
02:05 AM 41.5°F5.3°C 38.3°F3.5°C 88% 4.4 mph W7.1 kmh W 9.2 mph14.8 kmh 30.29 in1025.7 mb 0.00 in0.0 mm 0.00 in0.0 mm 0.00 in0.0 mm
02:10 AM 41.7°F5.4°C 38.1°F3.4°C 87% 4.0 mph WSW6.4 kmh WSW 8.3 mph13.4 kmh 30.30 in1026.1 mb 0.00 in0.0 mm 0.00 in0.0 mm 0.00 in0.0 mm
02:15 AM 40.8°F4.9°C 37.0°F2.8°C 86% 4.9 mph SW7.9 kmh SW 9.8 mph15.8 kmh 30.30 in1026.1 mb 0.00 in0.0 mm 0.00 in0.0 mm 0.00 in0.0 mm
02:20 AM 39.9°F4.4°C 36.7°F2.6°C 88% 5.0 mph SW8.0 kmh SW 9.8 mph15.8 kmh 30.30 in1026.1 mb 0.00 in0.0 mm 0.00 in0.0 mm 0.00 in0.0 mm
02:25 AM 40.1°F4.5°C 37.4°F3.0°C 90% 4.1 mph WSW6.6 kmh WSW 9.8 mph15.8 kmh 30.30 in1026.1 mb 0.00 in0.0 mm 0.00 in0.0 mm 0.00 in0.0 mm
02:30 AM 40.6°F4.8°C 37.7°F3.2°C 89% 4.1 mph WSW6.6 kmh WSW 9.8 mph15.8 kmh 30.30 in1026.1 mb 0.00 in0.0 mm 0.00 in0.0 mm 0.00 in0.0 mm
02:35 AM 40.6°F4.8°C 37.4°F3.0°C 88% 3.4 mph SW5.5 kmh SW 8.3 mph13.4 kmh 30.30 in1026.1 mb 0.00 in0.0 mm 0.00 in0.0 mm 0.00 in0.0 mm
02:40 AM 40.6°F4.8°C 37.4°F3.0°C 88% 2.1 mph SW3.4 kmh SW 5.4 mph8.7 kmh 30.30 in1026.1 mb 0.00 in0.0 mm 0.00 in0.0 mm 0.00 in0.0 mm
02:45 AM 40.5°F4.7°C 37.5°F3.1°C 89% 1.2 mph WSW1.9 kmh WSW 6.0 mph9.7 kmh 30.30 in1026.1 mb 0.00 in0.0 mm 0.00 in0.0 mm 0.00 in0.0 mm
02:50 AM 40.6°F4.8°C 37.7°F3.2°C 89% 2.1 mph WSW3.4 kmh WSW 6.0 mph9.7 kmh 30.30 in1026.1 mb 0.00 in0.0 mm 0.00 in0.0 mm 0.00 in0.0 mm
02:55 AM 40.5°F4.7°C 37.2°F2.9°C 88% 3.1 mph SW5.0 kmh SW 6.9 mph11.1 kmh 30.30 in1026.1 mb 0.00 in0.0 mm 0.00 in0.0 mm 0.00 in0.0 mm
03:00 AM 40.3°F4.6°C 37.3°F2.9°C 89% 3.3 mph SW5.3 kmh SW 6.9 mph11.1 kmh 30.30 in1026.1 mb 0.00 in0.0 mm 0.00 in0.0 mm 0.00 in0.0 mm
03:05 AM 39.9°F4.4°C 36.9°F2.7°C 89% 3.2 mph SW5.1 kmh SW 6.9 mph11.1 kmh 30.30 in1026.1 mb 0.00 in0.0 mm 0.00 in0.0 mm 0.00 in0.0 mm
03:10 AM 39.7°F4.3°C 36.8°F2.7°C 89% 3.1 mph WSW5.0 kmh WSW 6.9 mph11.1 kmh 30.30 in1026.1 mb 0.00 in0.0 mm 0.00 in0.0 mm 0.00 in0.0 mm
03:15 AM 39.4°F4.1°C 36.7°F2.6°C 90% 3.4 mph WSW5.5 kmh WSW 6.9 mph11.1 kmh 30.30 in1026.1 mb 0.00 in0.0 mm 0.00 in0.0 mm 0.00 in0.0 mm
03:20 AM 39.4°F4.1°C 36.7°F2.6°C 90% 3.7 mph SW6.0 kmh SW 6.9 mph11.1 kmh 30.30 in1026.1 mb 0.00 in0.0 mm 0.00 in0.0 mm 0.00 in0.0 mm
03:25 AM 39.6°F4.2°C 37.2°F2.9°C 91% 3.6 mph SW5.8 kmh SW 6.9 mph11.1 kmh 30.30 in1026.1 mb 0.00 in0.0 mm 0.00 in0.0 mm 0.00 in0.0 mm
03:30 AM 39.7°F4.3°C 37.1°F2.8°C 90% 4.0 mph WSW6.4 kmh WSW 9.2 mph14.8 kmh 30.30 in1026.1 mb 0.00 in0.0 mm 0.00 in0.0 mm 0.00 in0.0 mm
03:35 AM 39.9°F4.4°C 37.2°F2.9°C 90% 4.7 mph W7.6 kmh W 9.2 mph14.8 kmh 30.30 in1026.1 mb 0.00 in0.0 mm 0.00 in0.0 mm 0.00 in0.0 mm
03:40 AM 40.3°F4.6°C 37.3°F2.9°C 89% 4.4 mph WSW7.1 kmh WSW 9.2 mph14.8 kmh 30.30 in1026.1 mb 0.00 in0.0 mm 0.00 in0.0 mm 0.00 in0.0 mm
03:45 AM 39.7°F4.3°C 36.8°F2.7°C 89% 3.4 mph WSW5.5 kmh WSW 9.2 mph14.8 kmh 30.30 in1026.1 mb 0.00 in0.0 mm 0.00 in0.0 mm 0.00 in0.0 mm
03:50 AM 39.7°F4.3°C 36.8°F2.7°C 89% 2.7 mph SW4.3 kmh SW 6.9 mph11.1 kmh 30.30 in1026.1 mb 0.00 in0.0 mm 0.00 in0.0 mm 0.00 in0.0 mm
03:55 AM 39.4°F4.1°C 36.7°F2.6°C 90% 2.4 mph SW3.9 kmh SW 5.4 mph8.7 kmh 30.30 in1026.1 mb 0.00 in0.0 mm 0.00 in0.0 mm 0.00 in0.0 mm
04:00 AM 39.2°F4.0°C 36.8°F2.7°C 91% 2.1 mph WSW3.4 kmh WSW 5.4 mph8.7 kmh 30.30 in1026.1 mb 0.00 in0.0 mm 0.00 in0.0 mm 0.00 in0.0 mm
04:05 AM 39.2°F4.0°C 37.1°F2.8°C 92% 1.7 mph W2.7 kmh W 5.4 mph8.7 kmh 30.30 in1026.1 mb 0.00 in0.0 mm 0.00 in0.0 mm 0.00 in0.0 mm
04:10 AM 39.2°F4.0°C 37.4°F3.0°C 93% 1.3 mph WSW2.1 kmh WSW 3.8 mph6.1 kmh 30.30 in1026.1 mb 0.00 in0.0 mm 0.00 in0.0 mm 0.00 in0.0 mm
04:15 AM 39.2°F4.0°C 37.4°F3.0°C 93% 1.8 mph WSW2.9 kmh WSW 4.5 mph7.2 kmh 30.30 in1026.1 mb 0.00 in0.0 mm 0.00 in0.0 mm 0.00 in0.0 mm
04:20 AM 39.4°F4.1°C 37.5°F3.1°C 93% 1.9 mph W3.1 kmh W 4.5 mph7.2 kmh 30.30 in1026.1 mb 0.00 in0.0 mm 0.00 in0.0 mm 0.00 in0.0 mm
04:25 AM 39.6°F4.2°C 37.7°F3.2°C 93% 1.9 mph W3.1 kmh W 6.9 mph11.1 kmh 30.30 in1026.1 mb 0.00 in0.0 mm 0.00 in0.0 mm 0.00 in0.0 mm
04:30 AM 39.7°F4.3°C 37.6°F3.1°C 92% 3.3 mph W5.3 kmh W 9.2 mph14.8 kmh 30.30 in1026.1 mb 0.00 in0.0 mm 0.00 in0.0 mm 0.00 in0.0 mm
04:35 AM 39.6°F4.2°C 37.4°F3.0°C 92% 4.1 mph W6.6 kmh W 9.2 mph14.8 kmh 30.30 in1026.1 mb 0.00 in0.0 mm 0.00 in0.0 mm 0.00 in0.0 mm
04:40 AM 39.7°F4.3°C 37.3°F2.9°C 91% 4.1 mph W6.6 kmh W 9.2 mph14.8 kmh 30.30 in1026.1 mb 0.00 in0.0 mm 0.00 in0.0 mm 0.00 in0.0 mm
04:45 AM 39.9°F4.4°C 37.2°F2.9°C 90% 4.7 mph W7.6 kmh W 10.7 mph17.2 kmh 30.30 in1026.1 mb 0.00 in0.0 mm 0.00 in0.0 mm 0.00 in0.0 mm
04:50 AM 39.9°F4.4°C 36.9°F2.7°C 89% 4.7 mph W7.6 kmh W 10.7 mph17.2 kmh 30.30 in1026.1 mb 0.00 in0.0 mm 0.00 in0.0 mm 0.00 in0.0 mm
04:55 AM 39.9°F4.4°C 36.9°F2.7°C 89% 4.1 mph W6.6 kmh W 9.8 mph15.8 kmh 30.30 in1026.1 mb 0.00 in0.0 mm 0.00 in0.0 mm 0.00 in0.0 mm
05:00 AM 40.3°F4.6°C 37.3°F2.9°C 89% 3.5 mph W5.6 kmh W 8.3 mph13.4 kmh 30.30 in1026.1 mb 0.00 in0.0 mm 0.00 in0.0 mm 0.00 in0.0 mm
05:05 AM 39.6°F4.2°C 36.9°F2.7°C 90% 2.6 mph W4.2 kmh W 6.0 mph9.7 kmh 30.30 in1026.1 mb 0.00 in0.0 mm 0.00 in0.0 mm 0.00 in0.0 mm
05:10 AM 39.7°F4.3°C 37.1°F2.8°C 90% 1.9 mph W3.1 kmh W 6.0 mph9.7 kmh 30.30 in1026.1 mb 0.00 in0.0 mm 0.00 in0.0 mm 0.00 in0.0 mm
05:15 AM 39.6°F4.2°C 36.9°F2.7°C 90% 2.2 mph W3.5 kmh W 6.0 mph9.7 kmh 30.29 in1025.7 mb 0.00 in0.0 mm 0.00 in0.0 mm 0.00 in0.0 mm
05:20 AM 39.7°F4.3°C 37.1°F2.8°C 90% 3.1 mph W5.0 kmh W 7.6 mph12.2 kmh 30.30 in1026.1 mb 0.00 in0.0 mm 0.00 in0.0 mm 0.00 in0.0 mm
05:25 AM 39.9°F4.4°C 37.2°F2.9°C 90% 2.8 mph WSW4.5 kmh WSW 7.6 mph12.2 kmh 30.30 in1026.1 mb 0.00 in0.0 mm 0.00 in0.0 mm 0.00 in0.0 mm
05:30 AM 39.7°F4.3°C 37.1°F2.8°C 90% 1.7 mph SW2.7 kmh SW 4.5 mph7.2 kmh 30.30 in1026.1 mb 0.00 in0.0 mm 0.00 in0.0 mm 0.00 in0.0 mm
05:35 AM 39.4°F4.1°C 36.4°F2.4°C 89% 1.1 mph SSW1.8 kmh SSW 4.5 mph7.2 kmh 30.31 in1026.4 mb 0.00 in0.0 mm 0.00 in0.0 mm 0.00 in0.0 mm
05:40 AM 37.2°F2.9°C 34.6°F1.4°C 90% 0.7 mph SE1.1 kmh SE 3.1 mph5.0 kmh 30.31 in1026.4 mb 0.00 in0.0 mm 0.00 in0.0 mm 0.00 in0.0 mm
05:45 AM 37.6°F3.1°C 35.7°F2.1°C 93% 0.4 mph SE0.6 kmh SE 3.1 mph5.0 kmh 30.31 in1026.4 mb 0.00 in0.0 mm 0.00 in0.0 mm 0.00 in0.0 mm
05:50 AM 37.9°F3.3°C 36.4°F2.4°C 94% 0.2 mph WSW0.3 kmh WSW 3.1 mph5.0 kmh 30.31 in1026.4 mb 0.00 in0.0 mm 0.00 in0.0 mm 0.00 in0.0 mm
05:55 AM 38.3°F3.5°C 36.7°F2.6°C 94% 0.5 mph SW0.8 kmh SW 3.1 mph5.0 kmh 30.31 in1026.4 mb 0.00 in0.0 mm 0.00 in0.0 mm 0.00 in0.0 mm
06:00 AM 38.7°F3.7°C 37.1°F2.8°C 94% 1.2 mph WSW1.9 kmh WSW 4.5 mph7.2 kmh 30.31 in1026.4 mb 0.00 in0.0 mm 0.00 in0.0 mm 0.00 in0.0 mm
06:05 AM 38.8°F3.8°C 37.3°F2.9°C 94% 1.6 mph W2.6 kmh W 4.5 mph7.2 kmh 30.31 in1026.4 mb 0.00 in0.0 mm 0.00 in0.0 mm 0.00 in0.0 mm
06:10 AM 39.0°F3.9°C 37.4°F3.0°C 94% 2.0 mph W3.2 kmh W 7.6 mph12.2 kmh 30.31 in1026.4 mb 0.00 in0.0 mm 0.00 in0.0 mm 0.00 in0.0 mm
06:15 AM 39.7°F4.3°C 38.2°F3.4°C 94% 2.7 mph W4.3 kmh W 7.6 mph12.2 kmh 30.32 in1026.8 mb 0.00 in0.0 mm 0.00 in0.0 mm 0.00 in0.0 mm
06:20 AM 40.5°F4.7°C 38.6°F3.7°C 93% 3.1 mph W5.0 kmh W 7.6 mph12.2 kmh 30.31 in1026.4 mb 0.00 in0.0 mm 0.00 in0.0 mm 0.00 in0.0 mm
06:25 AM 40.3°F4.6°C 37.9°F3.3°C 91% 3.2 mph WSW5.1 kmh WSW 6.0 mph9.7 kmh 30.31 in1026.4 mb 0.00 in0.0 mm 0.00 in0.0 mm 0.00 in0.0 mm
06:30 AM 39.4°F4.1°C 36.7°F2.6°C 90% 3.1 mph SW5.0 kmh SW 6.0 mph9.7 kmh 30.31 in1026.4 mb 0.00 in0.0 mm 0.00 in0.0 mm 0.00 in0.0 mm
06:35 AM 38.1°F3.4°C 35.5°F1.9°C 90% 2.4 mph SSW3.9 kmh SSW 5.4 mph8.7 kmh 30.32 in1026.8 mb 0.00 in0.0 mm 0.00 in0.0 mm 0.00 in0.0 mm
06:40 AM 37.0°F2.8°C 34.9°F1.6°C 92% 1.3 mph SSE2.1 kmh SSE 5.4 mph8.7 kmh 30.32 in1026.8 mb 0.00 in0.0 mm 0.00 in0.0 mm 0.00 in0.0 mm
06:45 AM 36.7°F2.6°C 35.1°F1.7°C 94% 1.1 mph SW1.8 kmh SW 3.8 mph6.1 kmh 30.32 in1026.8 mb 0.00 in0.0 mm 0.00 in0.0 mm 0.00 in0.0 mm
06:50 AM 36.5°F2.5°C 35.2°F1.8°C 95% 1.1 mph SW1.8 kmh SW 3.8 mph6.1 kmh 30.32 in1026.8 mb 0.00 in0.0 mm 0.00 in0.0 mm 0.00 in0.0 mm
06:55 AM 36.0°F2.2°C 34.7°F1.5°C 95% 1.1 mph S1.8 kmh S 3.8 mph6.1 kmh 30.32 in1026.8 mb 0.00 in0.0 mm 0.00 in0.0 mm 0.00 in0.0 mm
07:00 AM 35.6°F2.0°C 34.6°F1.4°C 96% 0.7 mph SE1.1 kmh SE 3.8 mph6.1 kmh 30.32 in1026.8 mb 0.00 in0.0 mm 0.00 in0.0 mm 0.00 in0.0 mm
07:05 AM 35.4°F1.9°C 34.7°F1.5°C 97% Calm Calm 1.6 mph2.6 kmh 30.33 in1027.1 mb 0.00 in0.0 mm 0.00 in0.0 mm 0.00 in0.0 mm
07:10 AM 35.4°F1.9°C 34.9°F1.6°C 98% 0.1 mph SE0.2 kmh SE 1.6 mph2.6 kmh 30.33 in1027.1 mb 0.00 in0.0 mm 0.00 in0.0 mm 0.00 in0.0 mm
07:15 AM 35.2°F1.8°C 34.7°F1.5°C 98% 0.5 mph SW0.8 kmh SW 2.2 mph3.5 kmh 30.32 in1026.8 mb 0.00 in0.0 mm 0.00 in0.0 mm 0.00 in0.0 mm
07:20 AM 35.4°F1.9°C 35.2°F1.8°C 99% 0.7 mph WSW1.1 kmh WSW 2.2 mph3.5 kmh 30.32 in1026.8 mb 0.00 in0.0 mm 0.00 in0.0 mm 0.00 in0.0 mm
07:25 AM 36.5°F2.5°C 36.2°F2.3°C 99% 0.7 mph WSW1.1 kmh WSW 3.8 mph6.1 kmh 30.33 in1027.1 mb 0.00 in0.0 mm 0.00 in0.0 mm 0.00 in0.0 mm
07:30 AM 36.9°F2.7°C 36.6°F2.6°C 99% 1.1 mph SW1.8 kmh SW 3.8 mph6.1 kmh 30.33 in1027.1 mb 0.00 in0.0 mm 0.00 in0.0 mm 0.00 in0.0 mm
07:35 AM 36.9°F2.7°C 36.6°F2.6°C 99% 1.8 mph WSW2.9 kmh WSW 4.5 mph7.2 kmh 30.33 in1027.1 mb 0.00 in0.0 mm 0.00 in0.0 mm 0.00 in0.0 mm
07:40 AM 36.9°F2.7°C 36.6°F2.6°C 99% 2.3 mph WSW3.7 kmh WSW 6.9 mph11.1 kmh 30.33 in1027.1 mb 0.00 in0.0 mm 0.00 in0.0 mm 0.00 in0.0 mm
07:45 AM 37.0°F2.8°C 36.8°F2.7°C 99% 3.0 mph SW4.8 kmh SW 6.9 mph11.1 kmh 30.33 in1027.1 mb 0.00 in0.0 mm 0.00 in0.0 mm 0.00 in0.0 mm
07:50 AM 36.7°F2.6°C 36.4°F2.4°C 99% 3.7 mph SW6.0 kmh SW 5.4 mph8.7 kmh 30.33 in1027.1 mb 0.00 in0.0 mm 0.00 in0.0 mm 0.00 in0.0 mm
07:55 AM 36.5°F2.5°C 36.2°F2.3°C 99% 3.0 mph SW4.8 kmh SW 5.4 mph8.7 kmh 30.33 in1027.1 mb 0.00 in0.0 mm 0.00 in0.0 mm 0.00 in0.0 mm
08:00 AM 36.5°F2.5°C 36.2°F2.3°C 99% 2.2 mph SW3.5 kmh SW 5.4 mph8.7 kmh 30.33 in1027.1 mb 0.00 in0.0 mm 0.00 in0.0 mm 0.00 in0.0 mm
08:05 AM 36.3°F2.4°C 36.1°F2.3°C 99% 1.8 mph SW2.9 kmh SW 3.8 mph6.1 kmh 30.33 in1027.1 mb 0.00 in0.0 mm 0.00 in0.0 mm 0.00 in0.0 mm
08:10 AM 36.3°F2.4°C 36.1°F2.3°C 99% 1.6 mph SW2.6 kmh SW 3.8 mph6.1 kmh 30.33 in1027.1 mb 0.00 in0.0 mm 0.00 in0.0 mm 0.00 in0.0 mm
08:15 AM 36.5°F2.5°C 36.2°F2.3°C 99% 1.5 mph SW2.4 kmh SW 5.4 mph8.7 kmh 30.33 in1027.1 mb 0.00 in0.0 mm 0.00 in0.0 mm 0.00 in0.0 mm
08:20 AM 36.7°F2.6°C 36.4°F2.4°C 99% 1.3 mph SW2.1 kmh SW 5.4 mph8.7 kmh 30.33 in1027.1 mb 0.00 in0.0 mm 0.00 in0.0 mm 0.00 in0.0 mm
08:25 AM 37.2°F2.9°C 37.0°F2.8°C 99% 1.4 mph SW2.3 kmh SW 3.8 mph6.1 kmh 30.33 in1027.1 mb 0.00 in0.0 mm 0.00 in0.0 mm 0.00 in0.0 mm
08:30 AM 37.8°F3.2°C 37.5°F3.1°C 99% 1.8 mph WSW2.9 kmh WSW 3.8 mph6.1 kmh 30.33 in1027.1 mb 0.00 in0.0 mm 0.00 in0.0 mm 0.00 in0.0 mm
08:35 AM 38.7°F3.7°C 38.4°F3.6°C 99% 2.1 mph WSW3.4 kmh WSW 6.9 mph11.1 kmh 30.34 in1027.4 mb 0.00 in0.0 mm 0.00 in0.0 mm 0.00 in0.0 mm
08:40 AM 39.6°F4.2°C 39.0°F3.9°C 98% 2.2 mph SW3.5 kmh SW 6.9 mph11.1 kmh 30.34 in1027.4 mb 0.00 in0.0 mm 0.00 in0.0 mm 0.00 in0.0 mm
08:45 AM 39.9°F4.4°C 38.9°F3.8°C 96% 1.3 mph SW2.1 kmh SW 6.9 mph11.1 kmh 30.34 in1027.4 mb 0.00 in0.0 mm 0.00 in0.0 mm 0.00 in0.0 mm
08:50 AM 40.1°F4.5°C 38.8°F3.8°C 95% 0.4 mph SSW0.6 kmh SSW 2.2 mph3.5 kmh 30.34 in1027.4 mb 0.00 in0.0 mm 0.00 in0.0 mm 0.00 in0.0 mm
08:55 AM 40.5°F4.7°C 38.9°F3.8°C 94% 0.7 mph WSW1.1 kmh WSW 3.8 mph6.1 kmh 30.34 in1027.4 mb 0.00 in0.0 mm 0.00 in0.0 mm 0.00 in0.0 mm
09:00 AM 40.8°F4.9°C 39.0°F3.9°C 93% 1.2 mph WSW1.9 kmh WSW 3.8 mph6.1 kmh 30.34 in1027.4 mb 0.00 in0.0 mm 0.00 in0.0 mm 0.00 in0.0 mm
09:05 AM 41.2°F5.1°C 39.0°F3.9°C 92% 1.4 mph SW2.3 kmh SW 4.5 mph7.2 kmh 30.34 in1027.4 mb 0.00 in0.0 mm 0.00 in0.0 mm 0.00 in0.0 mm
09:10 AM 41.5°F5.3°C 39.4°F4.1°C 92% 1.4 mph WSW2.3 kmh WSW 4.5 mph7.2 kmh 30.34 in1027.4 mb 0.00 in0.0 mm 0.00 in0.0 mm 0.00 in0.0 mm
09:15 AM 42.1°F5.6°C 39.9°F4.4°C 92% 1.3 mph WSW2.1 kmh WSW 4.5 mph7.2 kmh 30.34 in1027.4 mb 0.00 in0.0 mm 0.00 in0.0 mm 0.00 in0.0 mm
09:20 AM 42.8°F6.0°C 40.1°F4.5°C 90% 1.4 mph SW2.3 kmh SW 4.5 mph7.2 kmh 30.34 in1027.4 mb 0.00 in0.0 mm 0.00 in0.0 mm 0.00 in0.0 mm
09:25 AM 43.3°F6.3°C 40.3°F4.6°C 89% 1.5 mph WSW2.4 kmh WSW 4.5 mph7.2 kmh 30.34 in1027.4 mb 0.00 in0.0 mm 0.00 in0.0 mm 0.00 in0.0 mm
09:30 AM 43.5°F6.4°C 40.2°F4.6°C 88% 2.0 mph WSW3.2 kmh WSW 5.4 mph8.7 kmh 30.34 in1027.4 mb 0.00 in0.0 mm 0.00 in0.0 mm 0.00 in0.0 mm
09:35 AM 43.7°F6.5°C 40.4°F4.7°C 88% 2.6 mph WSW4.2 kmh WSW 5.4 mph8.7 kmh 30.35 in1027.8 mb 0.00 in0.0 mm 0.00 in0.0 mm 0.00 in0.0 mm
09:40 AM 44.2°F6.8°C 40.9°F4.9°C 88% 2.4 mph WSW3.9 kmh WSW 5.4 mph8.7 kmh 30.34 in1027.4 mb 0.00 in0.0 mm 0.00 in0.0 mm 0.00 in0.0 mm
09:45 AM 44.8°F7.1°C 41.2°F5.1°C 87% 2.4 mph WSW3.9 kmh WSW 4.5 mph7.2 kmh 30.35 in1027.8 mb 0.00 in0.0 mm 0.00 in0.0 mm 0.00 in0.0 mm
09:50 AM 45.1°F7.3°C 41.2°F5.1°C 86% 2.7 mph SW4.3 kmh SW 6.9 mph11.1 kmh 30.35 in1027.8 mb 0.00 in0.0 mm 0.00 in0.0 mm 0.00 in0.0 mm
09:55 AM 45.5°F7.5°C 41.9°F5.5°C 87% 2.2 mph WSW3.5 kmh WSW 6.9 mph11.1 kmh 30.35 in1027.8 mb 0.00 in0.0 mm 0.00 in0.0 mm 0.00 in0.0 mm
10:00 AM 46.0°F7.8°C 42.1°F5.6°C 86% 2.0 mph SW3.2 kmh SW 5.4 mph8.7 kmh 30.35 in1027.8 mb 0.00 in0.0 mm 0.00 in0.0 mm 0.00 in0.0 mm
10:05 AM 46.6°F8.1°C 42.6°F5.9°C 86% 1.8 mph SW2.9 kmh SW 5.4 mph8.7 kmh 30.35 in1027.8 mb 0.00 in0.0 mm 0.00 in0.0 mm 0.00 in0.0 mm
10:10 AM 47.5°F8.6°C 43.2°F6.2°C 85% 1.2 mph WSW1.9 kmh WSW 5.4 mph8.7 kmh 30.35 in1027.8 mb 0.00 in0.0 mm 0.00 in0.0 mm 0.00 in0.0 mm
10:15 AM 48.0°F8.9°C 43.1°F6.2°C 83% 1.8 mph W2.9 kmh W 4.5 mph7.2 kmh 30.35 in1027.8 mb 0.00 in0.0 mm 0.00 in0.0 mm 0.00 in0.0 mm
10:20 AM 49.1°F9.5°C 43.5°F6.4°C 81% 2.1 mph W3.4 kmh W 4.5 mph7.2 kmh 30.35 in1027.8 mb 0.00 in0.0 mm 0.00 in0.0 mm 0.00 in0.0 mm
10:25 AM 50.0°F10.0°C 44.1°F6.7°C 80% 1.7 mph W2.7 kmh W 4.5 mph7.2 kmh 30.35 in1027.8 mb 0.00 in0.0 mm 0.00 in0.0 mm 0.00 in0.0 mm
10:30 AM 50.5°F10.3°C 44.3°F6.8°C 79% 1.2 mph W1.9 kmh W 3.1 mph5.0 kmh 30.35 in1027.8 mb 0.00 in0.0 mm 0.00 in0.0 mm 0.00 in0.0 mm
10:35 AM 51.4°F10.8°C 44.5°F6.9°C 77% 1.0 mph W1.6 kmh W 3.1 mph5.0 kmh 30.35 in1027.8 mb 0.00 in0.0 mm 0.00 in0.0 mm 0.00 in0.0 mm
10:40 AM 52.0°F11.1°C 44.3°F6.8°C 75% 1.4 mph W2.3 kmh W 4.5 mph7.2 kmh 30.35 in1027.8 mb 0.00 in0.0 mm 0.00 in0.0 mm 0.00 in0.0 mm
10:45 AM 52.7°F11.5°C 45.0°F7.2°C 75% 1.8 mph W2.9 kmh W 4.5 mph7.2 kmh 30.35 in1027.8 mb 0.00 in0.0 mm 0.00 in0.0 mm 0.00 in0.0 mm
10:50 AM 52.9°F11.6°C 44.5°F6.9°C 73% 1.8 mph W2.9 kmh W 4.5 mph7.2 kmh 30.35 in1027.8 mb 0.00 in0.0 mm 0.00 in0.0 mm 0.00 in0.0 mm
10:55 AM 53.4°F11.9°C 45.0°F7.2°C 73% 1.8 mph W2.9 kmh W 4.5 mph7.2 kmh 30.35 in1027.8 mb 0.00 in0.0 mm 0.00 in0.0 mm 0.00 in0.0 mm
11:00 AM 53.4°F11.9°C 45.0°F7.2°C 73% 1.5 mph WNW2.4 kmh WNW 3.8 mph6.1 kmh 30.35 in1027.8 mb 0.00 in0.0 mm 0.00 in0.0 mm 0.00 in0.0 mm
11:05 AM 53.8°F12.1°C 45.3°F7.4°C 73% 1.3 mph W2.1 kmh W 3.1 mph5.0 kmh 30.34 in1027.4 mb 0.00 in0.0 mm 0.00 in0.0 mm 0.00 in0.0 mm
11:10 AM 54.1°F12.3°C 45.3°F7.4°C 72% 1.2 mph W1.9 kmh W 3.8 mph6.1 kmh 30.35 in1027.8 mb 0.00 in0.0 mm 0.00 in0.0 mm 0.00 in0.0 mm
11:15 AM 54.5°F12.5°C 44.9°F7.2°C 70% 1.1 mph WSW1.8 kmh WSW 3.8 mph6.1 kmh 30.34 in1027.4 mb 0.00 in0.0 mm 0.00 in0.0 mm 0.00 in0.0 mm
11:20 AM 54.9°F12.7°C 44.9°F7.2°C 69% 0.6 mph WSW1.0 kmh WSW 3.1 mph5.0 kmh 30.35 in1027.8 mb 0.00 in0.0 mm 0.00 in0.0 mm 0.00 in0.0 mm
11:25 AM 55.4°F13.0°C 45.4°F7.4°C 69% 0.3 mph W0.5 kmh W 2.2 mph3.5 kmh 30.35 in1027.8 mb 0.00 in0.0 mm 0.00 in0.0 mm 0.00 in0.0 mm
11:30 AM 55.6°F13.1°C 45.2°F7.3°C 68% 0.6 mph WSW1.0 kmh WSW 3.1 mph5.0 kmh 30.34 in1027.4 mb 0.00 in0.0 mm 0.00 in0.0 mm 0.00 in0.0 mm
11:35 AM 55.9°F13.3°C 45.2°F7.3°C 67% 1.0 mph WSW1.6 kmh WSW 3.1 mph5.0 kmh 30.33 in1027.1 mb 0.00 in0.0 mm 0.00 in0.0 mm 0.00 in0.0 mm
11:40 AM 56.1°F13.4°C 45.7°F7.6°C 68% 1.2 mph W1.9 kmh W 3.8 mph6.1 kmh 30.33 in1027.1 mb 0.00 in0.0 mm 0.00 in0.0 mm 0.00 in0.0 mm
11:45 AM 56.3°F13.5°C 45.5°F7.5°C 67% 1.2 mph WSW1.9 kmh WSW 4.5 mph7.2 kmh 30.33 in1027.1 mb 0.00 in0.0 mm 0.00 in0.0 mm 0.00 in0.0 mm
11:50 AM 56.8°F13.8°C 46.4°F8.0°C 68% 1.5 mph WSW2.4 kmh WSW 4.5 mph7.2 kmh 30.33 in1027.1 mb 0.00 in0.0 mm 0.00 in0.0 mm 0.00 in0.0 mm
11:55 AM 57.0°F13.9°C 46.6°F8.1°C 68% 1.8 mph W2.9 kmh W 4.5 mph7.2 kmh 30.33 in1027.1 mb 0.00 in0.0 mm 0.00 in0.0 mm 0.00 in0.0 mm
12:00 PM 57.2°F14.0°C 46.4°F8.0°C 67% 1.4 mph WSW2.3 kmh WSW 4.5 mph7.2 kmh 30.33 in1027.1 mb 0.00 in0.0 mm 0.00 in0.0 mm 0.00 in0.0 mm
12:05 PM 57.7°F14.3°C 47.3°F8.5°C 68% 0.9 mph WSW1.4 kmh WSW 3.8 mph6.1 kmh 30.32 in1026.8 mb 0.00 in0.0 mm 0.00 in0.0 mm 0.00 in0.0 mm
12:10 PM 58.1°F14.5°C 47.2°F8.4°C 67% 1.1 mph W1.8 kmh W 3.8 mph6.1 kmh 30.32 in1026.8 mb 0.00 in0.0 mm 0.00 in0.0 mm 0.00 in0.0 mm
12:15 PM 58.3°F14.6°C 47.0°F8.3°C 66% 1.4 mph WNW2.3 kmh WNW 5.4 mph8.7 kmh 30.32 in1026.8 mb 0.00 in0.0 mm 0.00 in0.0 mm 0.00 in0.0 mm
12:20 PM 58.5°F14.7°C 47.9°F8.8°C 68% 1.8 mph WNW2.9 kmh WNW 5.4 mph8.7 kmh 30.32 in1026.8 mb 0.00 in0.0 mm 0.00 in0.0 mm 0.00 in0.0 mm
12:25 PM 59.0°F15.0°C 47.3°F8.5°C 65% 1.8 mph W2.9 kmh W 4.5 mph7.2 kmh 30.32 in1026.8 mb 0.00 in0.0 mm 0.00 in0.0 mm 0.00 in0.0 mm
12:30 PM 59.2°F15.1°C 46.6°F8.1°C 63% 2.0 mph WSW3.2 kmh WSW 4.5 mph7.2 kmh 30.31 in1026.4 mb 0.00 in0.0 mm 0.00 in0.0 mm 0.00 in0.0 mm
12:35 PM 59.5°F15.3°C 46.9°F8.3°C 63% 1.9 mph WSW3.1 kmh WSW 5.4 mph8.7 kmh 30.31 in1026.4 mb 0.00 in0.0 mm 0.00 in0.0 mm 0.00 in0.0 mm
12:40 PM 59.7°F15.4°C 46.3°F7.9°C 61% 1.8 mph WSW2.9 kmh WSW 5.4 mph8.7 kmh 30.31 in1026.4 mb 0.00 in0.0 mm 0.00 in0.0 mm 0.00 in0.0 mm
12:45 PM 59.9°F15.5°C 46.0°F7.8°C 60% 1.9 mph WSW3.1 kmh WSW 5.4 mph8.7 kmh 30.31 in1026.4 mb 0.00 in0.0 mm 0.00 in0.0 mm 0.00 in0.0 mm
12:50 PM 59.9°F15.5°C 45.6°F7.6°C 59% 2.1 mph WSW3.4 kmh WSW 6.0 mph9.7 kmh 30.30 in1026.1 mb 0.00 in0.0 mm 0.00 in0.0 mm 0.00 in0.0 mm
12:55 PM 59.9°F15.5°C 46.4°F8.0°C 61% 2.6 mph SW4.2 kmh SW 6.0 mph9.7 kmh 30.30 in1026.1 mb 0.00 in0.0 mm 0.00 in0.0 mm 0.00 in0.0 mm
01:00 PM 59.9°F15.5°C 46.9°F8.3°C 62% 3.0 mph SW4.8 kmh SW 7.6 mph12.2 kmh 30.30 in1026.1 mb 0.00 in0.0 mm 0.00 in0.0 mm 0.00 in0.0 mm
01:05 PM 59.7°F15.4°C 46.3°F7.9°C 61% 3.0 mph SW4.8 kmh SW 7.6 mph12.2 kmh 30.30 in1026.1 mb 0.00 in0.0 mm 0.00 in0.0 mm 0.00 in0.0 mm
01:10 PM 59.9°F15.5°C 46.9°F8.3°C 62% 2.7 mph SW4.3 kmh SW 6.0 mph9.7 kmh 30.30 in1026.1 mb 0.00 in0.0 mm 0.00 in0.0 mm 0.00 in0.0 mm
01:15 PM 59.7°F15.4°C 46.7°F8.2°C 62% 3.1 mph SW5.0 kmh SW 7.6 mph12.2 kmh 30.30 in1026.1 mb 0.00 in0.0 mm 0.00 in0.0 mm 0.00 in0.0 mm
01:20 PM 59.7°F15.4°C 46.7°F8.2°C 62% 3.7 mph SW6.0 kmh SW 7.6 mph12.2 kmh 30.30 in1026.1 mb 0.00 in0.0 mm 0.00 in0.0 mm 0.00 in0.0 mm
01:25 PM 59.9°F15.5°C 47.3°F8.5°C 63% 3.3 mph SW5.3 kmh SW 6.9 mph11.1 kmh 30.29 in1025.7 mb 0.00 in0.0 mm 0.00 in0.0 mm 0.00 in0.0 mm
01:30 PM 59.9°F15.5°C 46.9°F8.3°C 62% 2.8 mph SW4.5 kmh SW 6.0 mph9.7 kmh 30.29 in1025.7 mb 0.00 in0.0 mm 0.00 in0.0 mm 0.00 in0.0 mm
01:35 PM 60.1°F15.6°C 47.5°F8.6°C 63% 2.5 mph SW4.0 kmh SW 6.0 mph9.7 kmh 30.29 in1025.7 mb 0.00 in0.0 mm 0.00 in0.0 mm 0.00 in0.0 mm
01:40 PM 60.3°F15.7°C 47.2°F8.4°C 62% 2.1 mph SW3.4 kmh SW 6.0 mph9.7 kmh 30.29 in1025.7 mb 0.00 in0.0 mm 0.00 in0.0 mm 0.00 in0.0 mm
01:45 PM 60.3°F15.7°C 47.2°F8.4°C 62% 2.7 mph SW4.3 kmh SW 6.9 mph11.1 kmh 30.30 in1026.1 mb 0.00 in0.0 mm 0.00 in0.0 mm 0.00 in0.0 mm
01:50 PM 60.1°F15.6°C 47.0°F8.3°C 62% 3.3 mph SW5.3 kmh SW 6.9 mph11.1 kmh 30.29 in1025.7 mb 0.00 in0.0 mm 0.00 in0.0 mm 0.00 in0.0 mm
01:55 PM 60.1°F15.6°C 47.5°F8.6°C 63% 2.9 mph SW4.7 kmh SW 6.9 mph11.1 kmh 30.28 in1025.4 mb 0.00 in0.0 mm 0.00 in0.0 mm 0.00 in0.0 mm
02:00 PM 60.1°F15.6°C 47.9°F8.8°C 64% 2.7 mph SW4.3 kmh SW 6.9 mph11.1 kmh 30.28 in1025.4 mb 0.00 in0.0 mm 0.00 in0.0 mm 0.00 in0.0 mm
02:05 PM 60.3°F15.7°C 47.6°F8.7°C 63% 2.6 mph SW4.2 kmh SW 6.9 mph11.1 kmh 30.28 in1025.4 mb 0.00 in0.0 mm 0.00 in0.0 mm 0.00 in0.0 mm
02:10 PM 60.4°F15.8°C 47.8°F8.8°C 63% 2.2 mph WSW3.5 kmh WSW 6.0 mph9.7 kmh 30.28 in1025.4 mb 0.00 in0.0 mm 0.00 in0.0 mm 0.00 in0.0 mm
02:15 PM 60.6°F15.9°C 47.5°F8.6°C 62% 2.4 mph WSW3.9 kmh WSW 6.0 mph9.7 kmh 30.28 in1025.4 mb 0.00 in0.0 mm 0.00 in0.0 mm 0.00 in0.0 mm
02:20 PM 60.6°F15.9°C 47.1°F8.4°C 61% 2.4 mph SW3.9 kmh SW 6.0 mph9.7 kmh 30.28 in1025.4 mb 0.00 in0.0 mm 0.00 in0.0 mm 0.00 in0.0 mm
02:25 PM 60.3°F15.7°C 47.6°F8.7°C 63% 2.8 mph SW4.5 kmh SW 6.0 mph9.7 kmh 30.28 in1025.4 mb 0.00 in0.0 mm 0.00 in0.0 mm 0.00 in0.0 mm
02:30 PM 60.4°F15.8°C 46.9°F8.3°C 61% 2.4 mph SW3.9 kmh SW 6.0 mph9.7 kmh 30.28 in1025.4 mb 0.00 in0.0 mm 0.00 in0.0 mm 0.00 in0.0 mm
02:35 PM 60.4°F15.8°C 46.9°F8.3°C 61% 1.8 mph SW2.9 kmh SW 4.5 mph7.2 kmh 30.28 in1025.4 mb 0.00 in0.0 mm 0.00 in0.0 mm 0.00 in0.0 mm
02:40 PM 60.4°F15.8°C 47.4°F8.6°C 62% 2.1 mph SW3.4 kmh SW 5.4 mph8.7 kmh 30.28 in1025.4 mb 0.00 in0.0 mm 0.00 in0.0 mm 0.00 in0.0 mm
02:45 PM 60.4°F15.8°C 47.4°F8.6°C 62% 2.1 mph SW3.4 kmh SW 5.4 mph8.7 kmh 30.28 in1025.4 mb 0.00 in0.0 mm 0.00 in0.0 mm 0.00 in0.0 mm
02:50 PM 60.4°F15.8°C 47.4°F8.6°C 62% 2.1 mph SW3.4 kmh SW 5.4 mph8.7 kmh 30.28 in1025.4 mb 0.00 in0.0 mm 0.00 in0.0 mm 0.00 in0.0 mm
02:55 PM 60.4°F15.8°C 47.4°F8.6°C 62% 2.3 mph SW3.7 kmh SW 6.0 mph9.7 kmh 30.28 in1025.4 mb 0.00 in0.0 mm 0.00 in0.0 mm 0.00 in0.0 mm
03:00 PM 60.4°F15.8°C 47.4°F8.6°C 62% 2.0 mph SW3.2 kmh SW 6.0 mph9.7 kmh 30.28 in1025.4 mb 0.00 in0.0 mm 0.00 in0.0 mm 0.00 in0.0 mm
03:05 PM 60.4°F15.8°C 46.9°F8.3°C 61% 1.9 mph WSW3.1 kmh WSW 5.4 mph8.7 kmh 30.28 in1025.4 mb 0.00 in0.0 mm 0.00 in0.0 mm 0.00 in0.0 mm
03:10 PM 60.4°F15.8°C 46.9°F8.3°C 61% 2.1 mph WSW3.4 kmh WSW 5.4 mph8.7 kmh 30.28 in1025.4 mb 0.00 in0.0 mm 0.00 in0.0 mm 0.00 in0.0 mm
03:15 PM 60.4°F15.8°C 47.4°F8.6°C 62% 2.2 mph WSW3.5 kmh WSW 5.4 mph8.7 kmh 30.28 in1025.4 mb 0.00 in0.0 mm 0.00 in0.0 mm 0.00 in0.0 mm
03:20 PM 60.3°F15.7°C 47.2°F8.4°C 62% 2.5 mph WSW4.0 kmh WSW 4.5 mph7.2 kmh 30.28 in1025.4 mb 0.00 in0.0 mm 0.00 in0.0 mm 0.00 in0.0 mm
03:25 PM 60.3°F15.7°C 46.8°F8.2°C 61% 2.6 mph WSW4.2 kmh WSW 5.4 mph8.7 kmh 30.28 in1025.4 mb 0.00 in0.0 mm 0.00 in0.0 mm 0.00 in0.0 mm
03:30 PM 60.3°F15.7°C 47.2°F8.4°C 62% 2.0 mph WSW3.2 kmh WSW 5.4 mph8.7 kmh 30.28 in1025.4 mb 0.00 in0.0 mm 0.00 in0.0 mm 0.00 in0.0 mm
03:35 PM 60.3°F15.7°C 46.8°F8.2°C 61% 1.6 mph SW2.6 kmh SW 5.4 mph8.7 kmh 30.27 in1025.1 mb 0.00 in0.0 mm 0.00 in0.0 mm 0.00 in0.0 mm
03:40 PM 60.3°F15.7°C 46.8°F8.2°C 61% 1.7 mph WSW2.7 kmh WSW 5.4 mph8.7 kmh 30.27 in1025.1 mb 0.00 in0.0 mm 0.00 in0.0 mm 0.00 in0.0 mm
03:45 PM 60.3°F15.7°C 47.6°F8.7°C 63% 1.7 mph WSW2.7 kmh WSW 4.5 mph7.2 kmh 30.27 in1025.1 mb 0.00 in0.0 mm 0.00 in0.0 mm 0.00 in0.0 mm
03:50 PM 60.1°F15.6°C 47.0°F8.3°C 62% 1.4 mph WSW2.3 kmh WSW 4.5 mph7.2 kmh 30.27 in1025.1 mb 0.00 in0.0 mm 0.00 in0.0 mm 0.00 in0.0 mm
03:55 PM 59.9°F15.5°C 46.9°F8.3°C 62% 1.2 mph WSW1.9 kmh WSW 4.5 mph7.2 kmh 30.27 in1025.1 mb 0.00 in0.0 mm 0.00 in0.0 mm 0.00 in0.0 mm
04:00 PM 59.7°F15.4°C 45.4°F7.4°C 59% 1.3 mph WSW2.1 kmh WSW 4.5 mph7.2 kmh 30.27 in1025.1 mb 0.00 in0.0 mm 0.00 in0.0 mm 0.00 in0.0 mm
04:05 PM 59.5°F15.3°C 45.2°F7.3°C 59% 1.3 mph W2.1 kmh W 4.5 mph7.2 kmh 30.27 in1025.1 mb 0.00 in0.0 mm 0.00 in0.0 mm 0.00 in0.0 mm
04:10 PM 59.4°F15.2°C 45.0°F7.2°C 59% 1.2 mph WSW1.9 kmh WSW 6.0 mph9.7 kmh 30.27 in1025.1 mb 0.00 in0.0 mm 0.00 in0.0 mm 0.00 in0.0 mm
04:15 PM 59.2°F15.1°C 45.8°F7.7°C 61% 1.3 mph WSW2.1 kmh WSW 6.0 mph9.7 kmh 30.27 in1025.1 mb 0.00 in0.0 mm 0.00 in0.0 mm 0.00 in0.0 mm
04:20 PM 58.8°F14.9°C 46.3°F7.9°C 63% 1.3 mph WSW2.1 kmh WSW 4.5 mph7.2 kmh 30.27 in1025.1 mb 0.00 in0.0 mm 0.00 in0.0 mm 0.00 in0.0 mm
04:25 PM 58.1°F14.5°C 46.0°F7.8°C 64% 1.3 mph WSW2.1 kmh WSW 4.5 mph7.2 kmh 30.27 in1025.1 mb 0.00 in0.0 mm 0.00 in0.0 mm 0.00 in0.0 mm
04:30 PM 57.6°F14.2°C 45.1°F7.3°C 63% 1.6 mph W2.6 kmh W 4.5 mph7.2 kmh 30.27 in1025.1 mb 0.00 in0.0 mm 0.00 in0.0 mm 0.00 in0.0 mm
04:35 PM 57.2°F14.0°C 45.6°F7.6°C 65% 1.9 mph W3.1 kmh W 4.5 mph7.2 kmh 30.27 in1025.1 mb 0.00 in0.0 mm 0.00 in0.0 mm 0.00 in0.0 mm
04:40 PM 56.8°F13.8°C 45.6°F7.6°C 66% 1.8 mph W2.9 kmh W 4.5 mph7.2 kmh 30.27 in1025.1 mb 0.00 in0.0 mm 0.00 in0.0 mm 0.00 in0.0 mm
04:45 PM 56.7°F13.7°C 45.8°F7.7°C 67% 1.4 mph W2.3 kmh W 4.5 mph7.2 kmh 30.27 in1025.1 mb 0.00 in0.0 mm 0.00 in0.0 mm 0.00 in0.0 mm
04:50 PM 56.7°F13.7°C 45.8°F7.7°C 67% 1.5 mph W2.4 kmh W 3.8 mph6.1 kmh 30.27 in1025.1 mb 0.00 in0.0 mm 0.00 in0.0 mm 0.00 in0.0 mm
04:55 PM 55.8°F13.2°C 45.8°F7.7°C 69% 1.7 mph W2.7 kmh W 4.5 mph7.2 kmh 30.27 in1025.1 mb 0.00 in0.0 mm 0.00 in0.0 mm 0.00 in0.0 mm
05:00 PM 55.0°F12.8°C 45.8°F7.7°C 71% 1.8 mph WSW2.9 kmh WSW 4.5 mph7.2 kmh 30.27 in1025.1 mb 0.00 in0.0 mm 0.00 in0.0 mm 0.00 in0.0 mm
05:05 PM 54.3°F12.4°C 45.9°F7.7°C 73% 1.6 mph SW2.6 kmh SW 4.5 mph7.2 kmh 30.27 in1025.1 mb 0.00 in0.0 mm 0.00 in0.0 mm 0.00 in0.0 mm
05:10 PM 53.8°F12.1°C 45.7°F7.6°C 74% 1.8 mph WSW2.9 kmh WSW 4.5 mph7.2 kmh 30.27 in1025.1 mb 0.00 in0.0 mm 0.00 in0.0 mm 0.00 in0.0 mm
05:15 PM 52.9°F11.6°C 45.2°F7.3°C 75% 3.0 mph W4.8 kmh W 7.6 mph12.2 kmh 30.27 in1025.1 mb 0.00 in0.0 mm 0.00 in0.0 mm 0.00 in0.0 mm
05:20 PM 52.2°F11.2°C 44.8°F7.1°C 76% 3.4 mph W5.5 kmh W 7.6 mph12.2 kmh 30.27 in1025.1 mb 0.00 in0.0 mm 0.00 in0.0 mm 0.00 in0.0 mm
05:25 PM 51.6°F10.9°C 44.7°F7.1°C 77% 2.6 mph W4.2 kmh W 6.0 mph9.7 kmh 30.28 in1025.4 mb 0.00 in0.0 mm 0.00 in0.0 mm 0.00 in0.0 mm
05:30 PM 51.1°F10.6°C 44.5°F6.9°C 78% 2.4 mph WSW3.9 kmh WSW 6.0 mph9.7 kmh 30.28 in1025.4 mb 0.00 in0.0 mm 0.00 in0.0 mm 0.00 in0.0 mm
05:35 PM 50.5°F10.3°C 43.9°F6.6°C 78% 2.2 mph WSW3.5 kmh WSW 6.0 mph9.7 kmh 30.28 in1025.4 mb 0.00 in0.0 mm 0.00 in0.0 mm 0.00 in0.0 mm
05:40 PM 50.2°F10.1°C 43.9°F6.6°C 79% 2.2 mph W3.5 kmh W 6.0 mph9.7 kmh 30.28 in1025.4 mb 0.00 in0.0 mm 0.00 in0.0 mm 0.00 in0.0 mm
05:45 PM 50.0°F10.0°C 43.4°F6.3°C 78% 2.9 mph W4.7 kmh W 6.9 mph11.1 kmh 30.28 in1025.4 mb 0.00 in0.0 mm 0.00 in0.0 mm 0.00 in0.0 mm
05:50 PM 49.8°F9.9°C 43.2°F6.2°C 78% 3.3 mph W5.3 kmh W 6.9 mph11.1 kmh 30.28 in1025.4 mb 0.00 in0.0 mm 0.00 in0.0 mm 0.00 in0.0 mm
05:55 PM 49.6°F9.8°C 43.1°F6.2°C 78% 2.8 mph WSW4.5 kmh WSW 6.9 mph11.1 kmh 30.29 in1025.7 mb 0.00 in0.0 mm 0.00 in0.0 mm 0.00 in0.0 mm
06:00 PM 49.3°F9.6°C 42.7°F5.9°C 78% 2.1 mph SW3.4 kmh SW 5.4 mph8.7 kmh 30.28 in1025.4 mb 0.00 in0.0 mm 0.00 in0.0 mm 0.00 in0.0 mm
06:05 PM 48.9°F9.4°C 42.7°F5.9°C 79% 2.0 mph SW3.2 kmh SW 5.4 mph8.7 kmh 30.29 in1025.7 mb 0.00 in0.0 mm 0.00 in0.0 mm 0.00 in0.0 mm
06:10 PM 48.7°F9.3°C 42.5°F5.8°C 79% 2.6 mph WSW4.2 kmh WSW 6.9 mph11.1 kmh 30.29 in1025.7 mb 0.00 in0.0 mm 0.00 in0.0 mm 0.00 in0.0 mm
06:15 PM 48.6°F9.2°C 42.0°F5.6°C 78% 3.3 mph WSW5.3 kmh WSW 6.9 mph11.1 kmh 30.29 in1025.7 mb 0.00 in0.0 mm 0.00 in0.0 mm 0.00 in0.0 mm
06:20 PM 48.2°F9.0°C 42.0°F5.6°C 79% 2.6 mph WSW4.2 kmh WSW 6.9 mph11.1 kmh 30.29 in1025.7 mb 0.00 in0.0 mm 0.00 in0.0 mm 0.00 in0.0 mm
06:25 PM 47.7°F8.7°C 41.8°F5.4°C 80% 1.9 mph SW3.1 kmh SW 5.4 mph8.7 kmh 30.28 in1025.4 mb 0.00 in0.0 mm 0.00 in0.0 mm 0.00 in0.0 mm
06:30 PM 47.3°F8.5°C 41.4°F5.2°C 80% 2.0 mph SW3.2 kmh SW 5.4 mph8.7 kmh 30.29 in1025.7 mb 0.00 in0.0 mm 0.00 in0.0 mm 0.00 in0.0 mm
06:35 PM 47.1°F8.4°C 41.3°F5.2°C 80% 2.2 mph WSW3.5 kmh WSW 5.4 mph8.7 kmh 30.29 in1025.7 mb 0.00 in0.0 mm 0.00 in0.0 mm 0.00 in0.0 mm
06:40 PM 46.9°F8.3°C 41.4°F5.2°C 81% 2.5 mph WSW4.0 kmh WSW 6.0 mph9.7 kmh 30.29 in1025.7 mb 0.00 in0.0 mm 0.00 in0.0 mm 0.00 in0.0 mm
06:45 PM 46.6°F8.1°C 41.1°F5.1°C 81% 2.7 mph WSW4.3 kmh WSW 6.0 mph9.7 kmh 30.29 in1025.7 mb 0.00 in0.0 mm 0.00 in0.0 mm 0.00 in0.0 mm
06:50 PM 46.4°F8.0°C 40.9°F4.9°C 81% 2.7 mph SW4.3 kmh SW 5.4 mph8.7 kmh 30.29 in1025.7 mb 0.00 in0.0 mm 0.00 in0.0 mm 0.00 in0.0 mm
06:55 PM 46.2°F7.9°C 41.0°F5.0°C 82% 2.1 mph SW3.4 kmh SW 5.4 mph8.7 kmh 30.30 in1026.1 mb 0.00 in0.0 mm 0.00 in0.0 mm 0.00 in0.0 mm
07:00 PM 45.9°F7.7°C 40.7°F4.8°C 82% 1.9 mph WSW3.1 kmh WSW 5.4 mph8.7 kmh 30.30 in1026.1 mb 0.00 in0.0 mm 0.00 in0.0 mm 0.00 in0.0 mm
07:05 PM 45.7°F7.6°C 40.5°F4.7°C 82% 2.5 mph SW4.0 kmh SW 5.4 mph8.7 kmh 30.29 in1025.7 mb 0.00 in0.0 mm 0.00 in0.0 mm 0.00 in0.0 mm
07:10 PM 45.5°F7.5°C 40.3°F4.6°C 82% 2.7 mph SW4.3 kmh SW 5.4 mph8.7 kmh 30.30 in1026.1 mb 0.00 in0.0 mm 0.00 in0.0 mm 0.00 in0.0 mm
07:15 PM 45.3°F7.4°C 40.5°F4.7°C 83% 2.2 mph WSW3.5 kmh WSW 5.4 mph8.7 kmh 30.30 in1026.1 mb 0.00 in0.0 mm 0.00 in0.0 mm 0.00 in0.0 mm
07:20 PM 45.1°F7.3°C 40.3°F4.6°C 83% 2.3 mph WSW3.7 kmh WSW 6.9 mph11.1 kmh 30.30 in1026.1 mb 0.00 in0.0 mm 0.00 in0.0 mm 0.00 in0.0 mm
07:25 PM 45.0°F7.2°C 40.1°F4.5°C 83% 3.3 mph W5.3 kmh W 6.9 mph11.1 kmh 30.30 in1026.1 mb 0.00 in0.0 mm 0.00 in0.0 mm 0.00 in0.0 mm
07:30 PM 44.8°F7.1°C 39.9°F4.4°C 83% 3.8 mph WSW6.1 kmh WSW 6.9 mph11.1 kmh 30.30 in1026.1 mb 0.00 in0.0 mm 0.00 in0.0 mm 0.00 in0.0 mm
07:35 PM 44.6°F7.0°C 40.1°F4.5°C 84% 3.2 mph WSW5.1 kmh WSW 6.9 mph11.1 kmh 30.30 in1026.1 mb 0.00 in0.0 mm 0.00 in0.0 mm 0.00 in0.0 mm
07:40 PM 44.2°F6.8°C 39.7°F4.3°C 84% 2.2 mph SW3.5 kmh SW 5.4 mph8.7 kmh 30.30 in1026.1 mb 0.00 in0.0 mm 0.00 in0.0 mm 0.00 in0.0 mm
07:45 PM 44.1°F6.7°C 39.8°F4.3°C 85% 2.0 mph SW3.2 kmh SW 5.4 mph8.7 kmh 30.30 in1026.1 mb 0.00 in0.0 mm 0.00 in0.0 mm 0.00 in0.0 mm
07:50 PM 44.1°F6.7°C 39.8°F4.3°C 85% 2.3 mph SW3.7 kmh SW 5.4 mph8.7 kmh 30.30 in1026.1 mb 0.00 in0.0 mm 0.00 in0.0 mm 0.00 in0.0 mm
07:55 PM 43.7°F6.5°C 39.5°F4.2°C 85% 1.9 mph SW3.1 kmh SW 5.4 mph8.7 kmh 30.30 in1026.1 mb 0.00 in0.0 mm 0.00 in0.0 mm 0.00 in0.0 mm
08:00 PM 43.5°F6.4°C 39.3°F4.1°C 85% 1.7 mph SW2.7 kmh SW 3.8 mph6.1 kmh 30.30 in1026.1 mb 0.00 in0.0 mm 0.00 in0.0 mm 0.00 in0.0 mm
08:05 PM 43.5°F6.4°C 39.6°F4.2°C 86% 1.5 mph WSW2.4 kmh WSW 3.8 mph6.1 kmh 30.29 in1025.7 mb 0.00 in0.0 mm 0.00 in0.0 mm 0.00 in0.0 mm
08:10 PM 43.5°F6.4°C 39.6°F4.2°C 86% 1.8 mph WSW2.9 kmh WSW 4.5 mph7.2 kmh 30.29 in1025.7 mb 0.00 in0.0 mm 0.00 in0.0 mm 0.00 in0.0 mm
08:15 PM 43.5°F6.4°C 39.6°F4.2°C 86% 2.5 mph WSW4.0 kmh WSW 4.5 mph7.2 kmh 30.30 in1026.1 mb 0.00 in0.0 mm 0.00 in0.0 mm 0.00 in0.0 mm
08:20 PM 43.5°F6.4°C 39.6°F4.2°C 86% 2.5 mph WSW4.0 kmh WSW 5.4 mph8.7 kmh 30.29 in1025.7 mb 0.00 in0.0 mm 0.00 in0.0 mm 0.00 in0.0 mm
08:25 PM 43.3°F6.3°C 39.4°F4.1°C 86% 2.3 mph WSW3.7 kmh WSW 5.4 mph8.7 kmh 30.30 in1026.1 mb 0.00 in0.0 mm 0.00 in0.0 mm 0.00 in0.0 mm
08:30 PM 43.2°F6.2°C 39.3°F4.1°C 86% 1.6 mph WSW2.6 kmh WSW 3.8 mph6.1 kmh 30.30 in1026.1 mb 0.00 in0.0 mm 0.00 in0.0 mm 0.00 in0.0 mm
08:35 PM 43.0°F6.1°C 39.4°F4.1°C 87% 1.5 mph SW2.4 kmh SW 4.5 mph7.2 kmh 30.30 in1026.1 mb 0.00 in0.0 mm 0.00 in0.0 mm 0.00 in0.0 mm
08:40 PM 42.8°F6.0°C 39.2°F4.0°C 87% 2.6 mph WSW4.2 kmh WSW 6.9 mph11.1 kmh 30.30 in1026.1 mb 0.00 in0.0 mm 0.00 in0.0 mm 0.00 in0.0 mm
08:45 PM 42.6°F5.9°C 39.0°F3.9°C 87% 3.0 mph WSW4.8 kmh WSW 6.9 mph11.1 kmh 30.30 in1026.1 mb 0.00 in0.0 mm 0.00 in0.0 mm 0.00 in0.0 mm
08:50 PM 42.6°F5.9°C 39.0°F3.9°C 87% 2.6 mph WSW4.2 kmh WSW 6.9 mph11.1 kmh 30.30 in1026.1 mb 0.00 in0.0 mm 0.00 in0.0 mm 0.00 in0.0 mm
08:55 PM 42.6°F5.9°C 39.0°F3.9°C 87% 2.3 mph WSW3.7 kmh WSW 5.4 mph8.7 kmh 30.30 in1026.1 mb 0.00 in0.0 mm 0.00 in0.0 mm 0.00 in0.0 mm
09:00 PM 42.6°F5.9°C 39.0°F3.9°C 87% 1.6 mph WSW2.6 kmh WSW 5.4 mph8.7 kmh 30.30 in1026.1 mb 0.00 in0.0 mm 0.00 in0.0 mm 0.00 in0.0 mm
09:05 PM 42.6°F5.9°C 39.0°F3.9°C 87% 1.2 mph WSW1.9 kmh WSW 4.5 mph7.2 kmh 30.30 in1026.1 mb 0.00 in0.0 mm 0.00 in0.0 mm 0.00 in0.0 mm
09:10 PM 42.6°F5.9°C 39.0°F3.9°C 87% 1.8 mph WSW2.9 kmh WSW 5.4 mph8.7 kmh 30.29 in1025.7 mb 0.00 in0.0 mm 0.00 in0.0 mm 0.00 in0.0 mm
09:15 PM 42.4°F5.8°C 38.9°F3.8°C 87% 2.0 mph WSW3.2 kmh WSW 5.4 mph8.7 kmh 30.30 in1026.1 mb 0.00 in0.0 mm 0.00 in0.0 mm 0.00 in0.0 mm
09:20 PM 42.4°F5.8°C 38.9°F3.8°C 87% 1.5 mph WSW2.4 kmh WSW 5.4 mph8.7 kmh 30.30 in1026.1 mb 0.00 in0.0 mm 0.00 in0.0 mm 0.00 in0.0 mm
09:25 PM 42.3°F5.7°C 38.7°F3.7°C 87% 1.4 mph WSW2.3 kmh WSW 4.5 mph7.2 kmh 30.30 in1026.1 mb 0.00 in0.0 mm 0.00 in0.0 mm 0.00 in0.0 mm
09:30 PM 42.3°F5.7°C 38.7°F3.7°C 87% 1.7 mph WSW2.7 kmh WSW 4.5 mph7.2 kmh 30.30 in1026.1 mb 0.00 in0.0 mm 0.00 in0.0 mm 0.00 in0.0 mm
09:35 PM 42.3°F5.7°C 38.7°F3.7°C 87% 2.1 mph WSW3.4 kmh WSW 4.5 mph7.2 kmh 30.29 in1025.7 mb 0.00 in0.0 mm 0.00 in0.0 mm 0.00 in0.0 mm
09:40 PM 42.3°F5.7°C 38.7°F3.7°C 87% 2.2 mph WSW3.5 kmh WSW 4.5 mph7.2 kmh 30.29 in1025.7 mb 0.00 in0.0 mm 0.00 in0.0 mm 0.00 in0.0 mm
09:45 PM 42.1°F5.6°C 38.5°F3.6°C 87% 1.2 mph SW1.9 kmh SW 4.5 mph7.2 kmh 30.29 in1025.7 mb 0.00 in0.0 mm 0.00 in0.0 mm 0.00 in0.0 mm
09:50 PM 41.9°F5.5°C 38.6°F3.7°C 88% 0.5 mph WSW0.8 kmh WSW 2.2 mph3.5 kmh 30.30 in1026.1 mb 0.00 in0.0 mm 0.00 in0.0 mm 0.00 in0.0 mm
09:55 PM 41.5°F5.3°C 38.5°F3.6°C 89% 0.4 mph W0.6 kmh W 3.1 mph5.0 kmh 30.29 in1025.7 mb 0.00 in0.0 mm 0.00 in0.0 mm 0.00 in0.0 mm
10:00 PM 41.7°F5.4°C 39.0°F3.9°C 90% 0.5 mph WSW0.8 kmh WSW 3.1 mph5.0 kmh 30.29 in1025.7 mb 0.00 in0.0 mm 0.00 in0.0 mm 0.00 in0.0 mm
10:05 PM 41.5°F5.3°C 38.5°F3.6°C 89% 0.4 mph SW0.6 kmh SW 3.1 mph5.0 kmh 30.30 in1026.1 mb 0.00 in0.0 mm 0.00 in0.0 mm 0.00 in0.0 mm
10:10 PM 41.5°F5.3°C 38.8°F3.8°C 90% 0.3 mph SW0.5 kmh SW 2.2 mph3.5 kmh 30.30 in1026.1 mb 0.00 in0.0 mm 0.00 in0.0 mm 0.00 in0.0 mm
10:15 PM 41.5°F5.3°C 38.8°F3.8°C 90% 0.5 mph SW0.8 kmh SW 2.2 mph3.5 kmh 30.30 in1026.1 mb 0.00 in0.0 mm 0.00 in0.0 mm 0.00 in0.0 mm
10:20 PM 41.5°F5.3°C 38.8°F3.8°C 90% 0.7 mph SW1.1 kmh SW 3.1 mph5.0 kmh 30.29 in1025.7 mb 0.00 in0.0 mm 0.00 in0.0 mm 0.00 in0.0 mm
10:25 PM 41.4°F5.2°C 38.7°F3.7°C 90% 0.7 mph SW1.1 kmh SW 3.1 mph5.0 kmh 30.29 in1025.7 mb 0.00 in0.0 mm 0.00 in0.0 mm 0.00 in0.0 mm
10:30 PM 41.4°F5.2°C 38.7°F3.7°C 90% 1.0 mph SW1.6 kmh SW 3.8 mph6.1 kmh 30.29 in1025.7 mb 0.00 in0.0 mm 0.00 in0.0 mm 0.00 in0.0 mm
10:35 PM 41.2°F5.1°C 38.5°F3.6°C 90% 1.2 mph SW1.9 kmh SW 3.8 mph6.1 kmh 30.29 in1025.7 mb 0.00 in0.0 mm 0.00 in0.0 mm 0.00 in0.0 mm
10:40 PM 41.0°F5.0°C 38.3°F3.5°C 90% 0.7 mph SW1.1 kmh SW 3.8 mph6.1 kmh 30.29 in1025.7 mb 0.00 in0.0 mm 0.00 in0.0 mm 0.00 in0.0 mm
10:45 PM 40.5°F4.7°C 37.8°F3.2°C 90% 0.2 mph WSW0.3 kmh WSW 3.1 mph5.0 kmh 30.29 in1025.7 mb 0.00 in0.0 mm 0.00 in0.0 mm 0.00 in0.0 mm
10:50 PM 40.6°F4.8°C 38.2°F3.4°C 91% 0.9 mph WSW1.4 kmh WSW 3.8 mph6.1 kmh 30.29 in1025.7 mb 0.00 in0.0 mm 0.00 in0.0 mm 0.00 in0.0 mm
10:55 PM 40.6°F4.8°C 38.2°F3.4°C 91% 1.7 mph WSW2.7 kmh WSW 3.8 mph6.1 kmh 30.29 in1025.7 mb 0.00 in0.0 mm 0.00 in0.0 mm 0.00 in0.0 mm
11:00 PM 40.6°F4.8°C 38.2°F3.4°C 91% 1.7 mph SW2.7 kmh SW 3.8 mph6.1 kmh 30.29 in1025.7 mb 0.00 in0.0 mm 0.00 in0.0 mm 0.00 in0.0 mm
11:05 PM 40.5°F4.7°C 38.0°F3.3°C 91% 0.9 mph SW1.4 kmh SW 3.8 mph6.1 kmh 30.29 in1025.7 mb 0.00 in0.0 mm 0.00 in0.0 mm 0.00 in0.0 mm
11:10 PM 40.3°F4.6°C 37.9°F3.3°C 91% 0.2 mph SSW0.3 kmh SSW 2.2 mph3.5 kmh 30.29 in1025.7 mb 0.00 in0.0 mm 0.00 in0.0 mm 0.00 in0.0 mm
11:15 PM 40.3°F4.6°C 38.1°F3.4°C 92% 0.2 mph S0.3 kmh S 2.2 mph3.5 kmh 30.28 in1025.4 mb 0.00 in0.0 mm 0.00 in0.0 mm 0.00 in0.0 mm
11:20 PM 39.9°F4.4°C 37.8°F3.2°C 92% 0.4 mph SW0.6 kmh SW 3.1 mph5.0 kmh 30.29 in1025.7 mb 0.00 in0.0 mm 0.00 in0.0 mm 0.00 in0.0 mm
11:25 PM 39.9°F4.4°C 38.1°F3.4°C 93% 0.8 mph SW1.3 kmh SW 3.1 mph5.0 kmh 30.29 in1025.7 mb 0.00 in0.0 mm 0.00 in0.0 mm 0.00 in0.0 mm
11:30 PM 39.7°F4.3°C 37.9°F3.3°C 93% 1.1 mph WSW1.8 kmh WSW 3.8 mph6.1 kmh 30.28 in1025.4 mb 0.00 in0.0 mm 0.00 in0.0 mm 0.00 in0.0 mm
11:35 PM 40.1°F4.5°C 38.5°F3.6°C 94% 1.3 mph WSW2.1 kmh WSW 3.8 mph6.1 kmh 30.28 in1025.4 mb 0.00 in0.0 mm 0.00 in0.0 mm 0.00 in0.0 mm
11:40 PM 40.3°F4.6°C 38.7°F3.7°C 94% 1.5 mph SW2.4 kmh SW 3.8 mph6.1 kmh 30.28 in1025.4 mb 0.00 in0.0 mm 0.00 in0.0 mm 0.00 in0.0 mm
11:45 PM 40.3°F4.6°C 38.7°F3.7°C 94% 1.7 mph SW2.7 kmh SW 3.8 mph6.1 kmh 30.28 in1025.4 mb 0.00 in0.0 mm 0.00 in0.0 mm 0.00 in0.0 mm
11:50 PM 40.3°F4.6°C 38.7°F3.7°C 94% 1.7 mph SW2.7 kmh SW 3.8 mph6.1 kmh 30.28 in1025.4 mb 0.00 in0.0 mm 0.00 in0.0 mm 0.00 in0.0 mm
11:55 PM 39.9°F4.4°C 38.3°F3.5°C 94% 1.1 mph SW1.8 kmh SW 3.8 mph6.1 kmh 30.29 in1025.7 mb 0.00 in0.0 mm 0.00 in0.0 mm 0.00 in0.0 mm